sensor_id;sensor_type;location;lat;lon;timestamp;pressure;altitude;pressure_sealevel;temperature;humidity
2785;BME280;57944;48.722;9.316;2023-04-09T00:01:06;98731.97;;;6.63;100.00
2785;BME280;57944;48.722;9.316;2023-04-09T00:03:37;98739.13;;;6.67;100.00
2785;BME280;57944;48.722;9.316;2023-04-09T00:06:10;98729.72;;;6.60;100.00
2785;BME280;57944;48.722;9.316;2023-04-09T00:08:43;98732.56;;;6.57;100.00
2785;BME280;57944;48.722;9.316;2023-04-09T00:11:13;98727.19;;;6.60;100.00
2785;BME280;57944;48.722;9.316;2023-04-09T00:13:44;98723.78;;;6.69;100.00
2785;BME280;57944;48.722;9.316;2023-04-09T00:16:14;98734.34;;;6.64;100.00
2785;BME280;57944;48.722;9.316;2023-04-09T00:18:44;98729.28;;;6.64;100.00
2785;BME280;57944;48.722;9.316;2023-04-09T00:21:14;98725.25;;;6.54;100.00
2785;BME280;57944;48.722;9.316;2023-04-09T00:23:47;98728.22;;;6.49;100.00
2785;BME280;57944;48.722;9.316;2023-04-09T00:26:20;98726.81;;;6.46;100.00
2785;BME280;57944;48.722;9.316;2023-04-09T00:28:50;98731.56;;;6.49;100.00
2785;BME280;57944;48.722;9.316;2023-04-09T00:31:20;98731.81;;;6.64;100.00
2785;BME280;57944;48.722;9.316;2023-04-09T00:33:50;98731.41;;;6.69;100.00
2785;BME280;57944;48.722;9.316;2023-04-09T00:36:20;98729.84;;;6.76;100.00
2785;BME280;57944;48.722;9.316;2023-04-09T00:38:55;98722.25;;;6.76;100.00
2785;BME280;57944;48.722;9.316;2023-04-09T00:41:26;98714.19;;;6.81;100.00
2785;BME280;57944;48.722;9.316;2023-04-09T00:43:56;98723.34;;;7.00;100.00
2785;BME280;57944;48.722;9.316;2023-04-09T00:46:26;98717.66;;;7.06;100.00
2785;BME280;57944;48.722;9.316;2023-04-09T00:48:56;98717.22;;;7.10;100.00
2785;BME280;57944;48.722;9.316;2023-04-09T00:51:27;98719.28;;;7.15;100.00
2785;BME280;57944;48.722;9.316;2023-04-09T00:54:00;98726.88;;;7.15;100.00
2785;BME280;57944;48.722;9.316;2023-04-09T00:56:30;98720.84;;;7.08;100.00
2785;BME280;57944;48.722;9.316;2023-04-09T00:59:00;98714.19;;;7.07;100.00
2785;BME280;57944;48.722;9.316;2023-04-09T01:01:31;98724.00;;;7.10;100.00
2785;BME280;57944;48.722;9.316;2023-04-09T01:04:02;98722.91;;;7.12;100.00
2785;BME280;57944;48.722;9.316;2023-04-09T01:06:38;98717.66;;;7.06;100.00
2785;BME280;57944;48.722;9.316;2023-04-09T01:09:19;98717.19;;;7.02;100.00
2785;BME280;57944;48.722;9.316;2023-04-09T01:12:00;98720.59;;;6.93;100.00
2785;BME280;57944;48.722;9.316;2023-04-09T01:14:38;98717.56;;;6.89;100.00
2785;BME280;57944;48.722;9.316;2023-04-09T01:17:16;98716.78;;;6.89;100.00
2785;BME280;57944;48.722;9.316;2023-04-09T01:20:06;98715.28;;;6.78;100.00
2785;BME280;57944;48.722;9.316;2023-04-09T01:22:50;98709.81;;;6.65;100.00
2785;BME280;57944;48.722;9.316;2023-04-09T01:25:40;98719.47;;;6.61;100.00
2785;BME280;57944;48.722;9.316;2023-04-09T01:28:17;98707.94;;;6.67;100.00
2785;BME280;57944;48.722;9.316;2023-04-09T01:30:52;98708.25;;;6.64;100.00
2785;BME280;57944;48.722;9.316;2023-04-09T01:33:26;98711.69;;;6.63;100.00
2785;BME280;57944;48.722;9.316;2023-04-09T01:35:58;98715.78;;;6.56;100.00
2785;BME280;57944;48.722;9.316;2023-04-09T01:38:31;98718.97;;;6.58;100.00
2785;BME280;57944;48.722;9.316;2023-04-09T01:41:03;98720.25;;;6.62;100.00
2785;BME280;57944;48.722;9.316;2023-04-09T01:43:36;98721.41;;;6.67;100.00
2785;BME280;57944;48.722;9.316;2023-04-09T01:46:07;98714.16;;;6.72;100.00
2785;BME280;57944;48.722;9.316;2023-04-09T01:48:38;98710.22;;;6.78;100.00
2785;BME280;57944;48.722;9.316;2023-04-09T01:51:09;98717.38;;;6.83;100.00
2785;BME280;57944;48.722;9.316;2023-04-09T01:53:40;98714.19;;;6.81;100.00
2785;BME280;57944;48.722;9.316;2023-04-09T01:56:10;98726.94;;;6.71;100.00
2785;BME280;57944;48.722;9.316;2023-04-09T01:58:43;98725.81;;;6.65;100.00
2785;BME280;57944;48.722;9.316;2023-04-09T02:01:29;98721.22;;;6.61;100.00
2785;BME280;57944;48.722;9.316;2023-04-09T02:04:05;98720.53;;;6.59;100.00
2785;BME280;57944;48.722;9.316;2023-04-09T02:06:42;98718.00;;;6.59;100.00
2785;BME280;57944;48.722;9.316;2023-04-09T02:09:15;98719.47;;;6.61;100.00
2785;BME280;57944;48.722;9.316;2023-04-09T02:11:48;98721.50;;;6.58;100.00
2785;BME280;57944;48.722;9.316;2023-04-09T02:14:24;98723.88;;;6.59;100.00
2785;BME280;57944;48.722;9.316;2023-04-09T02:16:55;98716.56;;;6.56;100.00
2785;BME280;57944;48.722;9.316;2023-04-09T02:19:37;98719.25;;;6.55;100.00
2785;BME280;57944;48.722;9.316;2023-04-09T02:22:08;98715.53;;;6.67;100.00
2785;BME280;57944;48.722;9.316;2023-04-09T02:24:39;98709.13;;;6.81;100.00
2785;BME280;57944;48.722;9.316;2023-04-09T02:27:09;98703.56;;;6.77;100.00
2785;BME280;57944;48.722;9.316;2023-04-09T02:29:42;98713.50;;;6.70;100.00
2785;BME280;57944;48.722;9.316;2023-04-09T02:32:13;98708.44;;;6.70;100.00
2785;BME280;57944;48.722;9.316;2023-04-09T02:34:43;98709.53;;;6.68;100.00
2785;BME280;57944;48.722;9.316;2023-04-09T02:37:14;98710.97;;;6.70;100.00
2785;BME280;57944;48.722;9.316;2023-04-09T02:39:46;98705.53;;;6.65;100.00
2785;BME280;57944;48.722;9.316;2023-04-09T02:42:16;98709.28;;;6.53;100.00
2785;BME280;57944;48.722;9.316;2023-04-09T02:44:49;98713.47;;;6.44;100.00
2785;BME280;57944;48.722;9.316;2023-04-09T02:47:19;98708.41;;;6.44;100.00
2785;BME280;57944;48.722;9.316;2023-04-09T02:49:49;98718.19;;;6.39;100.00
2785;BME280;57944;48.722;9.316;2023-04-09T02:52:19;98706.31;;;6.40;100.00
2785;BME280;57944;48.722;9.316;2023-04-09T02:54:51;98709.69;;;6.48;100.00
2785;BME280;57944;48.722;9.316;2023-04-09T02:57:21;98720.13;;;6.45;100.00
2785;BME280;57944;48.722;9.316;2023-04-09T02:59:54;98708.56;;;6.43;100.00
2785;BME280;57944;48.722;9.316;2023-04-09T03:02:24;98711.38;;;6.40;100.00
2785;BME280;57944;48.722;9.316;2023-04-09T03:04:55;98707.78;;;6.42;100.00
2785;BME280;57944;48.722;9.316;2023-04-09T03:07:25;98708.41;;;6.44;100.00
2785;BME280;57944;48.722;9.316;2023-04-09T03:09:55;98697.03;;;6.48;100.00
2785;BME280;57944;48.722;9.316;2023-04-09T03:12:25;98694.88;;;6.54;100.00
2785;BME280;57944;48.722;9.316;2023-04-09T03:14:58;98693.22;;;6.44;100.00
2785;BME280;57944;48.722;9.316;2023-04-09T03:17:28;98697.84;;;6.49;100.00
2785;BME280;57944;48.722;9.316;2023-04-09T03:19:58;98694.50;;;6.48;100.00
2785;BME280;57944;48.722;9.316;2023-04-09T03:22:35;98697.50;;;6.44;100.00
2785;BME280;57944;48.722;9.316;2023-04-09T03:25:17;98694.13;;;6.35;100.00
2785;BME280;57944;48.722;9.316;2023-04-09T03:27:51;98701.97;;;6.32;100.00
2785;BME280;57944;48.722;9.316;2023-04-09T03:30:44;98691.59;;;6.35;100.00
2785;BME280;57944;48.722;9.316;2023-04-09T03:33:14;98690.34;;;6.39;100.00
2785;BME280;57944;48.722;9.316;2023-04-09T03:35:59;98697.94;;;6.39;100.00
2785;BME280;57944;48.722;9.316;2023-04-09T03:38:50;98694.91;;;6.36;100.00
2785;BME280;57944;48.722;9.316;2023-04-09T03:41:26;98693.09;;;6.28;100.00
2785;BME280;57944;48.722;9.316;2023-04-09T03:43:58;98693.41;;;6.25;100.00
2785;BME280;57944;48.722;9.316;2023-04-09T03:46:38;98694.84;;;6.28;100.00
2785;BME280;57944;48.722;9.316;2023-04-09T03:49:12;98697.66;;;6.24;100.00
2785;BME280;57944;48.722;9.316;2023-04-09T03:51:43;98691.16;;;6.22;100.00
2785;BME280;57944;48.722;9.316;2023-04-09T03:54:14;98694.00;;;6.19;100.00
2785;BME280;57944;48.722;9.316;2023-04-09T03:56:45;98690.50;;;6.20;100.00
2785;BME280;57944;48.722;9.316;2023-04-09T03:59:20;98691.75;;;6.16;100.00
2785;BME280;57944;48.722;9.316;2023-04-09T04:01:53;98687.53;;;6.07;100.00
2785;BME280;57944;48.722;9.316;2023-04-09T04:04:24;98688.13;;;6.00;100.00
2785;BME280;57944;48.722;9.316;2023-04-09T04:06:56;98684.56;;;5.93;100.00
2785;BME280;57944;48.722;9.316;2023-04-09T04:09:36;98684.31;;;5.96;100.00
2785;BME280;57944;48.722;9.316;2023-04-09T04:12:10;98691.25;;;5.85;100.00
2785;BME280;57944;48.722;9.316;2023-04-09T04:14:59;98684.34;;;5.69;100.00
2785;BME280;57944;48.722;9.316;2023-04-09T04:17:55;98690.16;;;5.51;100.00
2785;BME280;57944;48.722;9.316;2023-04-09T04:20:37;98695.47;;;5.48;100.00
2785;BME280;57944;48.722;9.316;2023-04-09T04:23:11;98690.72;;;5.45;100.00
2785;BME280;57944;48.722;9.316;2023-04-09T04:25:50;98692.50;;;5.35;100.00
2785;BME280;57944;48.722;9.316;2023-04-09T04:28:27;98695.38;;;5.12;100.00
2785;BME280;57944;48.722;9.316;2023-04-09T04:30:58;98699.25;;;5.17;100.00
2785;BME280;57944;48.722;9.316;2023-04-09T04:33:34;98702.00;;;5.23;100.00
2785;BME280;57944;48.722;9.316;2023-04-09T04:36:10;98698.66;;;5.23;100.00
2785;BME280;57944;48.722;9.316;2023-04-09T04:38:45;98709.16;;;5.28;100.00
2785;BME280;57944;48.722;9.316;2023-04-09T04:41:24;98704.28;;;5.17;100.00
2785;BME280;57944;48.722;9.316;2023-04-09T04:44:06;98704.94;;;5.19;100.00
2785;BME280;57944;48.722;9.316;2023-04-09T04:46:37;98707.47;;;5.19;100.00
2785;BME280;57944;48.722;9.316;2023-04-09T04:49:10;98709.03;;;5.29;100.00
2785;BME280;57944;48.722;9.316;2023-04-09T04:51:45;98710.09;;;5.27;100.00
2785;BME280;57944;48.722;9.316;2023-04-09T04:54:16;98700.34;;;5.32;100.00
2785;BME280;57944;48.722;9.316;2023-04-09T04:56:53;98706.03;;;5.44;100.00
2785;BME280;57944;48.722;9.316;2023-04-09T04:59:36;98707.19;;;5.77;100.00
2785;BME280;57944;48.722;9.316;2023-04-09T05:02:10;98707.69;;;5.80;100.00
2785;BME280;57944;48.722;9.316;2023-04-09T05:05:01;98710.28;;;5.89;100.00
2785;BME280;57944;48.722;9.316;2023-04-09T05:07:37;98708.56;;;5.89;100.00
2785;BME280;57944;48.722;9.316;2023-04-09T05:10:09;98713.31;;;6.02;100.00
2785;BME280;57944;48.722;9.316;2023-04-09T05:12:41;98706.94;;;6.16;100.00
2785;BME280;57944;48.722;9.316;2023-04-09T05:15:18;98717.19;;;6.32;100.00
2785;BME280;57944;48.722;9.316;2023-04-09T05:17:48;98722.16;;;6.42;100.00
2785;BME280;57944;48.722;9.316;2023-04-09T05:20:21;98725.13;;;6.55;100.00
2785;BME280;57944;48.722;9.316;2023-04-09T05:23:01;98726.31;;;6.69;100.00
2785;BME280;57944;48.722;9.316;2023-04-09T05:25:38;98724.38;;;6.89;100.00
2785;BME280;57944;48.722;9.316;2023-04-09T05:28:16;98727.16;;;7.04;100.00
2785;BME280;57944;48.722;9.316;2023-04-09T05:30:51;98722.78;;;7.14;100.00
2785;BME280;57944;48.722;9.316;2023-04-09T05:33:22;98726.13;;;7.23;100.00
2785;BME280;57944;48.722;9.316;2023-04-09T05:35:55;98725.97;;;7.58;100.00
2785;BME280;57944;48.722;9.316;2023-04-09T05:38:25;98724.00;;;8.11;100.00
2785;BME280;57944;48.722;9.316;2023-04-09T05:40:57;98722.59;;;8.66;100.00
2785;BME280;57944;48.722;9.316;2023-04-09T05:43:28;98727.50;;;9.31;100.00
2785;BME280;57944;48.722;9.316;2023-04-09T05:45:58;98729.00;;;10.34;100.00
2785;BME280;57944;48.722;9.316;2023-04-09T05:48:28;98730.44;;;11.34;100.00
2785;BME280;57944;48.722;9.316;2023-04-09T05:51:02;98733.28;;;12.18;94.75
2785;BME280;57944;48.722;9.316;2023-04-09T05:53:33;98745.28;;;12.95;81.67
2785;BME280;57944;48.722;9.316;2023-04-09T05:56:12;98745.22;;;12.89;78.60
2785;BME280;57944;48.722;9.316;2023-04-09T05:58:51;98738.19;;;12.97;75.67
2785;BME280;57944;48.722;9.316;2023-04-09T06:01:21;98738.88;;;13.13;74.15
2785;BME280;57944;48.722;9.316;2023-04-09T06:03:52;98735.69;;;13.04;70.58
2785;BME280;57944;48.722;9.316;2023-04-09T06:06:30;98740.03;;;13.10;72.10
2785;BME280;57944;48.722;9.316;2023-04-09T06:09:00;98744.53;;;13.08;71.61
2785;BME280;57944;48.722;9.316;2023-04-09T06:11:31;98744.75;;;13.48;68.06
2785;BME280;57944;48.722;9.316;2023-04-09T06:14:01;98741.84;;;13.64;64.49
2785;BME280;57944;48.722;9.316;2023-04-09T06:16:32;98740.50;;;13.75;67.10
2785;BME280;57944;48.722;9.316;2023-04-09T06:19:02;98736.97;;;13.90;62.07
2785;BME280;57944;48.722;9.316;2023-04-09T06:21:35;98744.88;;;13.88;59.69
2785;BME280;57944;48.722;9.316;2023-04-09T06:24:06;98739.66;;;13.61;63.91
2785;BME280;57944;48.722;9.316;2023-04-09T06:26:36;98744.44;;;13.71;66.65
2785;BME280;57944;48.722;9.316;2023-04-09T06:29:06;98741.53;;;13.88;62.83
2785;BME280;57944;48.722;9.316;2023-04-09T06:31:36;98739.72;;;13.75;61.28
2785;BME280;57944;48.722;9.316;2023-04-09T06:34:07;98739.50;;;13.70;60.14
2785;BME280;57944;48.722;9.316;2023-04-09T06:36:39;98733.63;;;13.82;65.13
2785;BME280;57944;48.722;9.316;2023-04-09T06:39:10;98734.47;;;14.29;57.81
2785;BME280;57944;48.722;9.316;2023-04-09T06:41:40;98731.13;;;14.62;57.78
2785;BME280;57944;48.722;9.316;2023-04-09T06:44:22;98738.97;;;14.87;54.74
2785;BME280;57944;48.722;9.316;2023-04-09T06:46:53;98737.38;;;15.13;55.77
2785;BME280;57944;48.722;9.316;2023-04-09T06:49:23;98742.41;;;15.39;53.45
2785;BME280;57944;48.722;9.316;2023-04-09T06:51:55;98742.09;;;15.61;52.62
2785;BME280;57944;48.722;9.316;2023-04-09T06:54:25;98743.16;;;15.92;50.88
2785;BME280;57944;48.722;9.316;2023-04-09T06:56:56;98745.97;;;16.15;51.71
2785;BME280;57944;48.722;9.316;2023-04-09T06:59:25;98740.78;;;15.90;48.63
2785;BME280;57944;48.722;9.316;2023-04-09T07:01:56;98749.69;;;15.88;49.14
2785;BME280;57944;48.722;9.316;2023-04-09T07:04:26;98746.50;;;15.92;48.39
2785;BME280;57944;48.722;9.316;2023-04-09T07:06:59;98739.78;;;15.53;51.30
2785;BME280;57944;48.722;9.316;2023-04-09T07:09:29;98749.63;;;16.01;50.02
2785;BME280;57944;48.722;9.316;2023-04-09T07:12:00;98742.28;;;16.29;47.99
2785;BME280;57944;48.722;9.316;2023-04-09T07:14:30;98748.25;;;16.80;47.24
2785;BME280;57944;48.722;9.316;2023-04-09T07:17:00;98738.53;;;16.75;46.80
2785;BME280;57944;48.722;9.316;2023-04-09T07:19:30;98743.09;;;16.73;48.64
2785;BME280;57944;48.722;9.316;2023-04-09T07:22:05;98753.03;;;16.95;47.51
2785;BME280;57944;48.722;9.316;2023-04-09T07:24:35;98752.28;;;16.19;48.99
2785;BME280;57944;48.722;9.316;2023-04-09T07:27:06;98749.44;;;15.57;48.96
2785;BME280;57944;48.722;9.316;2023-04-09T07:29:36;98754.19;;;15.60;50.39
2785;BME280;57944;48.722;9.316;2023-04-09T07:32:07;98753.19;;;14.96;49.52
2785;BME280;57944;48.722;9.316;2023-04-09T07:34:39;98759.91;;;14.97;51.33
2785;BME280;57944;48.722;9.316;2023-04-09T07:37:12;98757.47;;;15.23;49.24
2785;BME280;57944;48.722;9.316;2023-04-09T07:39:42;98765.09;;;14.71;50.13
2785;BME280;57944;48.722;9.316;2023-04-09T07:42:13;98765.25;;;14.49;52.59
2785;BME280;57944;48.722;9.316;2023-04-09T07:44:43;98770.00;;;14.59;52.45
2785;BME280;57944;48.722;9.316;2023-04-09T07:47:14;98765.88;;;14.65;51.76
2785;BME280;57944;48.722;9.316;2023-04-09T07:49:44;98766.19;;;15.22;50.81
2785;BME280;57944;48.722;9.316;2023-04-09T07:52:17;98774.84;;;15.27;48.31
2785;BME280;57944;48.722;9.316;2023-04-09T07:54:47;98778.81;;;15.16;50.57
2785;BME280;57944;48.722;9.316;2023-04-09T07:57:17;98773.59;;;15.50;50.96
2785;BME280;57944;48.722;9.316;2023-04-09T07:59:47;98774.53;;;15.69;48.19
2785;BME280;57944;48.722;9.316;2023-04-09T08:02:17;98769.94;;;15.71;48.06
2785;BME280;57944;48.722;9.316;2023-04-09T08:04:48;98773.94;;;17.05;46.63
2785;BME280;57944;48.722;9.316;2023-04-09T08:07:20;98780.03;;;16.11;46.18
2785;BME280;57944;48.722;9.316;2023-04-09T08:09:51;98775.56;;;16.81;46.07
2785;BME280;57944;48.722;9.316;2023-04-09T08:12:21;98778.13;;;16.81;44.16
2785;BME280;57944;48.722;9.316;2023-04-09T08:14:51;98767.19;;;16.86;44.90
2785;BME280;57944;48.722;9.316;2023-04-09T08:17:22;98769.53;;;16.87;44.57
2785;BME280;57944;48.722;9.316;2023-04-09T08:19:52;98775.66;;;16.11;46.42
2785;BME280;57944;48.722;9.316;2023-04-09T08:22:25;98774.84;;;16.42;45.98
2785;BME280;57944;48.722;9.316;2023-04-09T08:24:55;98781.53;;;16.50;46.40
2785;BME280;57944;48.722;9.316;2023-04-09T08:27:28;98783.28;;;16.81;45.17
2785;BME280;57944;48.722;9.316;2023-04-09T08:29:59;98784.53;;;17.34;43.60
2785;BME280;57944;48.722;9.316;2023-04-09T08:32:29;98779.44;;;18.48;41.14
2785;BME280;57944;48.722;9.316;2023-04-09T08:35:00;98781.13;;;17.89;41.98
2785;BME280;57944;48.722;9.316;2023-04-09T08:37:32;98787.19;;;17.94;41.26
2785;BME280;57944;48.722;9.316;2023-04-09T08:40:03;98783.38;;;17.30;42.60
2785;BME280;57944;48.722;9.316;2023-04-09T08:42:35;98790.25;;;17.36;42.67
2785;BME280;57944;48.722;9.316;2023-04-09T08:45:06;98788.69;;;17.16;43.46
2785;BME280;57944;48.722;9.316;2023-04-09T08:47:39;98796.56;;;16.78;43.32
2785;BME280;57944;48.722;9.316;2023-04-09T08:50:10;98793.97;;;16.53;44.69
2785;BME280;57944;48.722;9.316;2023-04-09T08:52:45;98795.81;;;17.51;42.68
2785;BME280;57944;48.722;9.316;2023-04-09T08:55:16;98796.53;;;17.22;43.82
2785;BME280;57944;48.722;9.316;2023-04-09T08:57:46;98794.31;;;16.63;42.74
2785;BME280;57944;48.722;9.316;2023-04-09T09:00:16;98797.81;;;16.69;42.56
2785;BME280;57944;48.722;9.316;2023-04-09T09:03:02;98803.69;;;17.56;41.40
2785;BME280;57944;48.722;9.316;2023-04-09T09:05:37;98805.41;;;17.26;41.09
2785;BME280;57944;48.722;9.316;2023-04-09T09:08:12;98802.28;;;17.42;40.49
2785;BME280;57944;48.722;9.316;2023-04-09T09:10:43;98806.16;;;18.42;38.87
2785;BME280;57944;48.722;9.316;2023-04-09T09:13:20;98803.53;;;18.30;39.20
2785;BME280;57944;48.722;9.316;2023-04-09T09:15:52;98799.25;;;19.41;37.54
2785;BME280;57944;48.722;9.316;2023-04-09T09:18:37;98801.22;;;17.98;38.12
2785;BME280;57944;48.722;9.316;2023-04-09T09:21:11;98801.59;;;17.83;37.82
2785;BME280;57944;48.722;9.316;2023-04-09T09:23:45;98802.19;;;17.49;39.25
2785;BME280;57944;48.722;9.316;2023-04-09T09:26:18;98799.84;;;17.47;39.51
2785;BME280;57944;48.722;9.316;2023-04-09T09:28:50;98798.25;;;17.83;39.16
2785;BME280;57944;48.722;9.316;2023-04-09T09:31:21;98803.19;;;18.26;38.07
2785;BME280;57944;48.722;9.316;2023-04-09T09:33:52;98801.28;;;17.25;39.96
2785;BME280;57944;48.722;9.316;2023-04-09T09:36:33;98807.47;;;17.35;39.22
2785;BME280;57944;48.722;9.316;2023-04-09T09:39:06;98809.13;;;17.30;39.84
2785;BME280;57944;48.722;9.316;2023-04-09T09:41:39;98802.81;;;18.11;38.99
2785;BME280;57944;48.722;9.316;2023-04-09T09:44:30;98795.94;;;18.59;38.71
2785;BME280;57944;48.722;9.316;2023-04-09T09:47:02;98799.22;;;18.78;37.67
2785;BME280;57944;48.722;9.316;2023-04-09T09:49:32;98807.38;;;18.39;37.25
2785;BME280;57944;48.722;9.316;2023-04-09T09:52:07;98802.16;;;18.16;38.54
2785;BME280;57944;48.722;9.316;2023-04-09T09:54:42;98795.97;;;19.06;36.96
2785;BME280;57944;48.722;9.316;2023-04-09T09:57:12;98792.50;;;19.00;36.22
2785;BME280;57944;48.722;9.316;2023-04-09T09:59:50;98794.41;;;17.00;39.32
2785;BME280;57944;48.722;9.316;2023-04-09T10:02:23;98789.69;;;16.15;41.42
2785;BME280;57944;48.722;9.316;2023-04-09T10:04:59;98778.63;;;15.76;41.80
2785;BME280;57944;48.722;9.316;2023-04-09T10:07:30;98787.63;;;16.30;41.58
2785;BME280;57944;48.722;9.316;2023-04-09T10:10:07;98791.19;;;17.90;38.60
2785;BME280;57944;48.722;9.316;2023-04-09T10:12:39;98788.22;;;18.59;36.73
2785;BME280;57944;48.722;9.316;2023-04-09T10:15:11;98786.91;;;19.43;36.30
2785;BME280;57944;48.722;9.316;2023-04-09T10:17:41;98790.16;;;18.21;38.12
2785;BME280;57944;48.722;9.316;2023-04-09T10:20:17;98797.81;;;17.86;37.86
2785;BME280;57944;48.722;9.316;2023-04-09T10:22:50;98788.28;;;18.40;36.90
2785;BME280;57944;48.722;9.316;2023-04-09T10:25:24;98790.50;;;17.64;38.59
2785;BME280;57944;48.722;9.316;2023-04-09T10:27:58;98784.09;;;18.81;37.35
2785;BME280;57944;48.722;9.316;2023-04-09T10:30:32;98791.69;;;21.10;34.52
2785;BME280;57944;48.722;9.316;2023-04-09T10:33:10;98783.53;;;22.59;32.06
2785;BME280;57944;48.722;9.316;2023-04-09T10:35:40;98789.75;;;21.01;32.28
2785;BME280;57944;48.722;9.316;2023-04-09T10:38:13;98784.47;;;20.73;31.07
2785;BME280;57944;48.722;9.316;2023-04-09T10:40:49;98779.56;;;18.88;33.76
2785;BME280;57944;48.722;9.316;2023-04-09T10:43:20;98780.84;;;18.08;35.02
2785;BME280;57944;48.722;9.316;2023-04-09T10:45:51;98783.16;;;17.50;36.57
2785;BME280;57944;48.722;9.316;2023-04-09T10:48:22;98782.00;;;17.46;37.60
2785;BME280;57944;48.722;9.316;2023-04-09T10:50:54;98777.00;;;16.20;38.98
2785;BME280;57944;48.722;9.316;2023-04-09T10:53:24;98775.44;;;16.13;38.92
2785;BME280;57944;48.722;9.316;2023-04-09T10:56:00;98770.84;;;16.21;38.83
2785;BME280;57944;48.722;9.316;2023-04-09T10:58:30;98774.06;;;16.10;39.57
2785;BME280;57944;48.722;9.316;2023-04-09T11:01:00;98762.53;;;15.88;40.18
2785;BME280;57944;48.722;9.316;2023-04-09T11:03:37;98762.50;;;15.56;41.00
2785;BME280;57944;48.722;9.316;2023-04-09T11:06:13;98760.47;;;15.64;40.28
2785;BME280;57944;48.722;9.316;2023-04-09T11:08:44;98764.34;;;16.94;39.02
2785;BME280;57944;48.722;9.316;2023-04-09T11:11:17;98762.00;;;17.59;37.03
2785;BME280;57944;48.722;9.316;2023-04-09T11:13:47;98768.19;;;17.22;37.01
2785;BME280;57944;48.722;9.316;2023-04-09T11:16:18;98763.03;;;16.60;37.90
2785;BME280;57944;48.722;9.316;2023-04-09T11:18:51;98764.47;;;16.81;36.92
2785;BME280;57944;48.722;9.316;2023-04-09T11:21:26;98757.56;;;16.74;36.12
2785;BME280;57944;48.722;9.316;2023-04-09T11:23:57;98749.75;;;16.38;37.45
2785;BME280;57944;48.722;9.316;2023-04-09T11:26:36;98750.03;;;17.16;36.47
2785;BME280;57944;48.722;9.316;2023-04-09T11:29:06;98743.84;;;17.54;35.27
2785;BME280;57944;48.722;9.316;2023-04-09T11:31:37;98745.63;;;17.05;36.70
2785;BME280;57944;48.722;9.316;2023-04-09T11:34:09;98746.19;;;16.39;36.11
2785;BME280;57944;48.722;9.316;2023-04-09T11:36:40;98749.28;;;16.91;35.77
2785;BME280;57944;48.722;9.316;2023-04-09T11:39:10;98735.97;;;19.15;33.35
2785;BME280;57944;48.722;9.316;2023-04-09T11:41:43;98750.66;;;19.67;32.41
2785;BME280;57944;48.722;9.316;2023-04-09T11:44:13;98740.31;;;19.27;31.80
2785;BME280;57944;48.722;9.316;2023-04-09T11:46:44;98743.22;;;18.78;33.48
2785;BME280;57944;48.722;9.316;2023-04-09T11:49:15;98740.97;;;19.34;32.50
2785;BME280;57944;48.722;9.316;2023-04-09T11:51:46;98740.88;;;19.57;32.29
2785;BME280;57944;48.722;9.316;2023-04-09T11:54:16;98741.53;;;20.10;31.42
2785;BME280;57944;48.722;9.316;2023-04-09T11:56:51;98740.34;;;20.01;31.22
2785;BME280;57944;48.722;9.316;2023-04-09T11:59:22;98731.47;;;19.97;31.46
2785;BME280;57944;48.722;9.316;2023-04-09T12:01:52;98730.47;;;20.65;31.36
2785;BME280;57944;48.722;9.316;2023-04-09T12:04:23;98734.13;;;20.52;30.40
2785;BME280;57944;48.722;9.316;2023-04-09T12:06:57;98739.44;;;21.68;29.52
2785;BME280;57944;48.722;9.316;2023-04-09T12:09:27;98746.94;;;22.28;29.30
2785;BME280;57944;48.722;9.316;2023-04-09T12:12:02;98735.19;;;23.06;28.28
2785;BME280;57944;48.722;9.316;2023-04-09T12:14:44;98729.09;;;22.85;28.23
2785;BME280;57944;48.722;9.316;2023-04-09T12:17:14;98731.78;;;21.34;29.90
2785;BME280;57944;48.722;9.316;2023-04-09T12:19:47;98720.28;;;20.08;31.19
2785;BME280;57944;48.722;9.316;2023-04-09T12:22:17;98728.19;;;19.15;32.81
2785;BME280;57944;48.722;9.316;2023-04-09T12:24:47;98722.25;;;17.97;34.03
2785;BME280;57944;48.722;9.316;2023-04-09T12:27:20;98723.63;;;18.12;33.83
2785;BME280;57944;48.722;9.316;2023-04-09T12:29:50;98729.44;;;19.13;32.63
2785;BME280;57944;48.722;9.316;2023-04-09T12:32:20;98734.00;;;19.63;31.67
2785;BME280;57944;48.722;9.316;2023-04-09T12:34:50;98721.75;;;18.54;33.16
2785;BME280;57944;48.722;9.316;2023-04-09T12:37:21;98720.59;;;18.15;33.55
2785;BME280;57944;48.722;9.316;2023-04-09T12:39:51;98715.00;;;17.46;34.49
2785;BME280;57944;48.722;9.316;2023-04-09T12:42:24;98721.91;;;17.33;34.60
2785;BME280;57944;48.722;9.316;2023-04-09T12:44:54;98718.13;;;17.17;35.59
2785;BME280;57944;48.722;9.316;2023-04-09T12:47:24;98716.13;;;16.83;35.45
2785;BME280;57944;48.722;9.316;2023-04-09T12:49:55;98708.84;;;16.73;35.52
2785;BME280;57944;48.722;9.316;2023-04-09T12:52:25;98701.03;;;16.43;36.31
2785;BME280;57944;48.722;9.316;2023-04-09T12:54:55;98698.13;;;15.82;36.62
2785;BME280;57944;48.722;9.316;2023-04-09T12:57:28;98702.66;;;15.42;37.75
2785;BME280;57944;48.722;9.316;2023-04-09T12:59:58;98698.53;;;15.41;38.29
2785;BME280;57944;48.722;9.316;2023-04-09T13:02:30;98695.06;;;15.22;38.11
2785;BME280;57944;48.722;9.316;2023-04-09T13:05:01;98693.94;;;14.98;38.86
2785;BME280;57944;48.722;9.316;2023-04-09T13:07:31;98690.28;;;16.02;36.79
2785;BME280;57944;48.722;9.316;2023-04-09T13:10:01;98690.22;;;17.14;34.89
2785;BME280;57944;48.722;9.316;2023-04-09T13:12:35;98681.38;;;19.12;32.47
2785;BME280;57944;48.722;9.316;2023-04-09T13:15:06;98684.72;;;20.54;30.63
2785;BME280;57944;48.722;9.316;2023-04-09T13:17:36;98682.97;;;19.30;31.35
2785;BME280;57944;48.722;9.316;2023-04-09T13:20:10;98684.56;;;17.96;32.90
2785;BME280;57944;48.722;9.316;2023-04-09T13:22:40;98676.34;;;17.46;33.43
2785;BME280;57944;48.722;9.316;2023-04-09T13:25:15;98687.66;;;17.14;34.43
2785;BME280;57944;48.722;9.316;2023-04-09T13:27:48;98677.41;;;17.68;33.85
2785;BME280;57944;48.722;9.316;2023-04-09T13:30:18;98676.28;;;18.65;32.19
2785;BME280;57944;48.722;9.316;2023-04-09T13:32:48;98667.31;;;19.08;31.62
2785;BME280;57944;48.722;9.316;2023-04-09T13:35:19;98664.84;;;19.58;30.95
2785;BME280;57944;48.722;9.316;2023-04-09T13:37:49;98658.47;;;20.28;30.52
2785;BME280;57944;48.722;9.316;2023-04-09T13:40:19;98665.16;;;21.07;29.06